Time;durP1;ratioP1;P1;durP2;ratioP2;P2;SDS_P1;SDS_P2;PMS_P1;PMS_P2;Temp;Humidity;BMP_temperature;BMP_pressure;BME280_temperature;BME280_humidity;BME280_pressure;Samples;Min_cycle;Max_cycle;Signal;HPM_P1;HPM_P2
2022/01/14 00:02:14;;;;;;;4.47;1.60;;;;;;;2.89;72.21;100122.13;1671528;83;21161;-65
2022/01/14 00:04:40;;;;;;;3.90;1.40;;;;;;;2.97;72.06;100117.34;1695708;83;21047;-65
2022/01/14 00:07:08;;;;;;;4.37;1.40;;;;;;;3.02;71.90;100121.00;1695128;82;21110;-65
2022/01/14 00:09:36;;;;;;;5.50;1.70;;;;;;;3.00;71.90;100126.75;1667473;83;21078;-65
2022/01/14 00:12:11;;;;;;;3.72;1.32;;;;;;;2.95;72.00;100130.05;1695149;82;21572;-64
2022/01/14 00:14:38;;;;;;;4.72;1.70;;;;;;;2.97;72.01;100126.91;1696266;83;22382;-67
2022/01/14 00:17:13;;;;;;;5.42;1.62;;;;;;;3.07;71.81;100119.47;1693395;82;21122;-64
2022/01/14 00:19:41;;;;;;;2.67;1.10;;;;;;;3.16;71.56;100118.96;1689810;82;21087;-65
2022/01/14 00:22:16;;;;;;;4.30;1.70;;;;;;;3.14;71.41;100122.11;1658780;82;21198;-64
2022/01/14 00:33:09;;;;;;;4.00;1.30;;;;;;;3.16;71.44;100110.72;1696096;83;21412;-66
2022/01/14 00:35:33;;;;;;;4.10;1.50;;;;;;;3.18;71.35;100111.08;1668283;82;21154;-67
2022/01/14 00:37:59;;;;;;;3.62;1.22;;;;;;;3.18;71.38;100114.98;1665417;83;22324;-67
2022/01/14 00:40:25;;;;;;;3.55;1.27;;;;;;;3.14;71.36;100102.17;1678413;83;21537;-66
2022/01/14 00:42:52;;;;;;;4.15;1.72;;;;;;;3.20;71.27;100103.59;1669159;84;21118;-66
2022/01/14 00:45:19;;;;;;;3.80;1.30;;;;;;;3.31;71.04;100099.96;1710410;81;21039;-66
2022/01/14 00:47:45;;;;;;;3.90;1.20;;;;;;;3.40;70.80;100098.61;1734858;81;21127;-66
2022/01/14 00:50:13;;;;;;;5.30;1.27;;;;;;;3.40;70.61;100096.02;1731887;81;21067;-65
2022/01/14 00:52:41;;;;;;;2.90;1.15;;;;;;;3.38;70.62;100090.50;1728863;81;20991;-65
2022/01/14 00:55:12;;;;;;;3.40;1.55;;;;;;;3.32;70.62;100087.31;1711862;81;21753;-66
2022/01/14 01:00:28;;;;;;;3.73;1.27;;;;;;;3.41;70.51;100082.06;1731121;80;21267;-63
2022/01/14 01:02:54;;;;;;;3.15;1.00;;;;;;;3.44;70.39;100083.20;1733616;80;21129;-65
2022/01/14 01:05:21;;;;;;;3.33;1.25;;;;;;;3.42;70.41;100083.75;1735764;81;21116;-64
2022/01/14 01:08:03;;;;;;;4.15;1.27;;;;;;;3.38;70.51;100060.16;1730072;81;21105;-66
2022/01/14 01:10:20;;;;;;;6.67;1.17;;;;;;;3.39;70.37;100060.98;1731467;81;21731;-66
2022/01/14 01:15:15;;;;;;;3.17;1.22;;;;;;;3.46;70.36;100066.21;1739759;80;21196;-66
2022/01/14 01:17:41;;;;;;;3.40;1.15;;;;;;;3.45;70.30;100057.58;1733425;80;21102;-65
2022/01/14 01:20:18;;;;;;;3.33;1.12;;;;;;;3.44;70.37;100049.86;1709674;81;21534;-65
2022/01/14 01:22:40;;;;;;;3.70;1.20;;;;;;;3.42;70.37;100051.23;1710291;82;21010;-66
2022/01/14 01:25:11;;;;;;;5.37;1.60;;;;;;;3.39;70.37;100050.11;1738404;81;21114;-64
2022/01/14 01:27:40;;;;;;;4.47;1.37;;;;;;;3.46;70.35;100036.30;1715980;82;21136;-66
2022/01/14 01:30:37;;;;;;;3.60;1.30;;;;;;;3.56;70.20;100017.11;1707962;81;21058;-64
2022/01/14 01:32:40;;;;;;;4.78;1.35;;;;;;;3.59;70.03;100006.06;1707326;82;21670;-64
2022/01/14 01:35:07;;;;;;;3.00;1.00;;;;;;;3.59;70.07;100003.94;1738318;81;21092;-64
2022/01/14 01:37:34;;;;;;;4.00;1.20;;;;;;;3.55;70.07;100000.67;1734816;80;21183;-64
2022/01/14 01:40:01;;;;;;;3.55;1.07;;;;;;;3.54;70.15;99993.78;1687063;82;21132;-65
2022/01/14 01:42:29;;;;;;;3.70;1.35;;;;;;;3.52;70.12;99991.73;1729639;80;21633;-65
2022/01/14 01:44:58;;;;;;;3.00;0.90;;;;;;;3.52;70.10;99986.06;1734711;80;21509;-65
2022/01/14 01:47:23;;;;;;;3.30;0.90;;;;;;;3.63;69.87;99987.21;1737851;80;21865;-65
2022/01/14 01:49:50;;;;;;;3.08;1.17;;;;;;;3.67;69.75;99970.52;1720626;80;21192;-65
2022/01/14 01:52:16;;;;;;;3.75;1.17;;;;;;;3.68;69.80;99961.77;1730646;80;22003;-65
2022/01/14 01:54:43;;;;;;;2.98;1.15;;;;;;;3.64;69.82;99957.67;1730633;80;21008;-66
2022/01/14 01:57:10;;;;;;;5.10;1.10;;;;;;;3.59;69.88;99929.31;1729989;80;21066;-65
2022/01/14 01:59:38;;;;;;;3.37;1.20;;;;;;;3.55;69.99;99914.83;1733234;80;21639;-65
2022/01/14 02:02:05;;;;;;;4.42;1.27;;;;;;;3.52;70.12;99895.02;1732081;80;21134;-65
2022/01/14 02:04:31;;;;;;;4.67;1.40;;;;;;;3.59;70.05;99900.70;1694111;83;21006;-65
2022/01/14 02:06:57;;;;;;;3.77;1.30;;;;;;;3.64;69.91;99922.55;1673108;82;21069;-65
2022/01/14 02:09:24;;;;;;;3.95;1.30;;;;;;;3.66;69.99;99896.80;1696064;82;21535;-65
2022/01/14 02:11:51;;;;;;;3.85;1.20;;;;;;;3.64;70.10;99888.25;1731582;81;21095;-65
2022/01/14 02:14:41;;;;;;;3.42;1.30;;;;;;;3.59;70.15;99891.59;1725092;82;21202;-65
2022/01/14 02:17:15;;;;;;;3.22;1.10;;;;;;;3.55;70.14;99873.20;1691836;82;20977;-64
2022/01/14 02:19:31;;;;;;;4.97;1.40;;;;;;;3.47;70.32;99871.52;1692860;83;21129;-64
2022/01/14 02:22:10;;;;;;;3.47;0.98;;;;;;;3.51;70.29;99886.00;1744240;80;21905;-63
2022/01/14 02:27:12;;;;;;;2.95;0.80;;;;;;;3.55;70.22;99904.42;1677737;83;21264;-64
2022/01/14 02:29:38;;;;;;;2.35;0.60;;;;;;;3.54;70.25;99897.06;1736014;80;21067;-63
2022/01/14 02:32:06;;;;;;;2.33;0.80;;;;;;;3.52;70.26;99888.98;1722230;80;21584;-66
2022/01/14 02:34:33;;;;;;;3.58;1.10;;;;;;;3.52;70.35;99882.48;1693341;83;21105;-66
2022/01/14 02:37:01;;;;;;;4.40;1.20;;;;;;;3.60;70.08;99885.47;1693305;82;21094;-67
2022/01/14 02:39:27;;;;;;;3.35;1.00;;;;;;;3.66;69.93;99879.05;1694739;82;21186;-66
2022/01/14 02:41:53;;;;;;;3.17;1.10;;;;;;;3.67;69.92;99876.84;1666005;83;21527;-65
2022/01/14 02:44:26;;;;;;;3.22;1.00;;;;;;;3.66;69.98;99877.76;1732056;80;21138;-68
2022/01/14 02:46:56;;;;;;;3.85;0.80;;;;;;;3.63;70.46;99866.22;1692718;82;22459;-64
2022/01/14 02:49:27;;;;;;;3.65;0.72;;;;;;;3.60;70.36;99858.59;1718059;80;21079;-65
2022/01/14 02:51:52;;;;;;;2.75;0.98;;;;;;;3.62;70.25;99852.86;1697421;82;21061;-69
2022/01/14 02:54:22;;;;;;;3.87;0.88;;;;;;;3.68;70.46;99848.13;1722377;80;21145;-65
2022/01/14 02:56:53;;;;;;;3.25;1.10;;;;;;;3.69;70.24;99855.46;1734552;80;21114;-66
2022/01/14 02:59:21;;;;;;;4.28;1.10;;;;;;;3.65;70.33;99837.08;1735052;80;21118;-65
2022/01/14 03:01:49;;;;;;;3.90;1.20;;;;;;;3.63;70.46;99828.50;1732418;80;21063;-64
2022/01/14 03:04:20;;;;;;;4.95;1.20;;;;;;;3.61;70.49;99823.86;1731065;80;21834;-66
2022/01/14 03:06:47;;;;;;;4.10;1.10;;;;;;;3.59;70.61;99823.13;1695883;82;21615;-65
2022/01/14 03:09:15;;;;;;;3.47;1.02;;;;;;;3.65;70.45;99819.69;1692223;83;21112;-65
2022/01/14 03:11:48;;;;;;;4.62;1.10;;;;;;;3.74;70.40;99819.59;1721624;80;21122;-64
2022/01/14 03:14:22;;;;;;;3.92;1.00;;;;;;;3.76;70.36;99814.30;1693027;83;21077;-65
2022/01/14 03:16:47;;;;;;;4.35;1.37;;;;;;;3.71;70.47;99808.89;1690612;82;21518;-63
2022/01/14 03:19:19;;;;;;;3.35;1.07;;;;;;;3.69;70.56;99804.72;1727540;80;21059;-64
2022/01/14 03:21:42;;;;;;;3.10;1.15;;;;;;;3.66;70.64;99797.09;1730122;80;21066;-64
2022/01/14 03:25:47;;;;;;;3.60;1.02;;;;;;;3.64;70.81;99799.79;1729293;80;21099;-64
2022/01/14 03:26:56;;;;;;;3.60;1.30;;;;;;;3.71;70.68;99808.06;1676258;83;21129;-64
2022/01/14 03:29:22;;;;;;;3.58;1.10;;;;;;;3.79;70.61;99787.61;1733863;80;21419;-64
2022/01/14 03:31:49;;;;;;;3.62;1.40;;;;;;;3.81;70.53;99781.84;1731620;82;21458;-64
2022/01/14 03:34:15;;;;;;;4.97;1.32;;;;;;;3.77;70.66;99773.87;1727805;80;21007;-64
2022/01/14 03:36:42;;;;;;;3.77;1.22;;;;;;;3.76;70.72;99763.55;1735144;80;21036;-64
2022/01/14 03:39:08;;;;;;;3.50;1.20;;;;;;;3.70;70.96;99763.48;1735193;80;21089;-64
2022/01/14 03:41:34;;;;;;;3.40;1.10;;;;;;;3.71;71.01;99753.42;1690504;82;21151;-64
2022/01/14 03:44:01;;;;;;;3.02;1.12;;;;;;;3.78;70.84;99736.96;1687915;82;21101;-64
2022/01/14 03:46:27;;;;;;;5.85;1.70;;;;;;;3.81;70.86;99745.88;1729049;80;21509;-64
2022/01/14 03:48:53;;;;;;;3.62;1.20;;;;;;;3.79;70.98;99745.98;1717901;80;21066;-64
2022/01/14 03:51:20;;;;;;;4.25;1.47;;;;;;;3.76;71.11;99733.15;1689554;82;21552;-65
2022/01/14 03:53:48;;;;;;;4.97;1.98;;;;;;;3.68;71.43;99732.78;1688607;82;21239;-64
2022/01/14 03:56:15;;;;;;;4.30;1.80;;;;;;;3.67;71.59;99720.25;1676261;83;21036;-65
2022/01/14 03:58:41;;;;;;;4.37;1.65;;;;;;;3.75;71.38;99713.73;1724330;80;21691;-64
2022/01/14 04:01:10;;;;;;;4.80;1.82;;;;;;;3.76;71.35;99716.23;1735278;80;21089;-65
2022/01/14 04:03:36;;;;;;;4.72;1.60;;;;;;;3.75;71.50;99670.79;1689299;81;21059;-64
2022/01/14 04:06:04;;;;;;;3.85;1.10;;;;;;;3.70;71.57;99690.62;1723994;80;21887;-65
2022/01/14 04:08:31;;;;;;;3.87;1.22;;;;;;;3.65;72.06;99687.47;1728235;80;21090;-65
2022/01/14 04:10:58;;;;;;;4.53;1.47;;;;;;;3.65;72.02;99693.98;1722942;81;21047;-65
2022/01/14 04:13:38;;;;;;;3.10;1.12;;;;;;;3.69;72.08;99681.13;1701905;82;21105;-64
2022/01/14 04:15:53;;;;;;;4.87;1.75;;;;;;;3.71;71.86;99661.88;1731290;80;21071;-65
2022/01/14 04:18:21;;;;;;;5.10;1.90;;;;;;;3.69;71.83;99662.92;1727098;82;22341;-64
2022/01/14 04:20:51;;;;;;;4.08;1.65;;;;;;;3.65;72.27;99680.97;1729917;81;21067;-64
2022/01/14 04:23:19;;;;;;;5.47;1.90;;;;;;;3.57;72.53;99678.83;1688064;83;21616;-64
2022/01/14 04:25:51;;;;;;;3.50;1.25;;;;;;;3.59;72.41;99679.56;1720865;80;21102;-64
2022/01/14 04:28:14;;;;;;;4.83;1.67;;;;;;;3.66;72.07;99671.73;1673438;83;21109;-64
2022/01/14 04:30:41;;;;;;;3.83;1.40;;;;;;;3.70;71.80;99675.83;1746245;80;21544;-65
2022/01/14 04:33:07;;;;;;;3.10;1.20;;;;;;;3.69;71.75;99670.72;1727423;81;21085;-63
2022/01/14 04:35:35;;;;;;;4.33;1.10;;;;;;;3.66;71.80;99668.31;1692254;82;21172;-64
2022/01/14 04:38:01;;;;;;;4.25;1.50;;;;;;;3.59;71.93;99669.16;1719348;80;21090;-64
2022/01/14 04:40:28;;;;;;;4.42;1.37;;;;;;;3.59;72.07;99667.03;1741425;80;21004;-64
2022/01/14 04:42:55;;;;;;;4.05;1.70;;;;;;;3.67;71.88;99672.59;1739076;80;22029;-64
2022/01/14 04:45:40;;;;;;;5.60;1.80;;;;;;;3.72;71.75;99662.25;1700345;82;21093;-64
2022/01/14 04:47:56;;;;;;;5.30;1.95;;;;;;;3.70;71.72;99659.39;1696904;82;21098;-64
2022/01/14 04:50:23;;;;;;;5.08;1.77;;;;;;;3.68;71.74;99658.63;1701418;83;21704;-64
2022/01/14 04:52:50;;;;;;;4.35;1.40;;;;;;;3.64;71.82;99654.56;1700067;82;21011;-64
2022/01/14 04:55:20;;;;;;;4.28;1.60;;;;;;;3.65;71.83;99647.14;1702685;82;21082;-64
2022/01/14 04:57:46;;;;;;;4.97;1.60;;;;;;;3.72;71.69;99646.64;1676713;83;21923;-65
2022/01/14 05:00:17;;;;;;;4.78;1.55;;;;;;;3.79;71.48;99628.88;1680600;83;20975;-65
2022/01/14 05:02:43;;;;;;;4.25;1.37;;;;;;;3.83;71.41;99632.96;1703423;82;20987;-64
2022/01/14 05:05:10;;;;;;;5.62;1.60;;;;;;;3.78;71.59;99630.27;1740143;80;21090;-64
2022/01/14 05:07:37;;;;;;;4.28;1.42;;;;;;;3.74;71.78;99637.44;1720515;80;21229;-63
2022/01/14 05:12:38;;;;;;;4.12;1.37;;;;;;;3.70;71.99;99615.16;1701131;82;21065;-64
2022/01/14 05:15:06;;;;;;;3.60;1.30;;;;;;;3.73;72.47;99614.94;1701430;83;21050;-64
2022/01/14 05:17:32;;;;;;;3.37;1.10;;;;;;;3.74;73.08;99624.42;1672086;82;21053;-63
2022/01/14 05:19:58;;;;;;;4.50;1.70;;;;;;;3.72;73.18;99614.59;1696144;82;21223;-64
2022/01/14 05:22:27;;;;;;;4.03;1.32;;;;;;;3.68;73.01;99619.16;1693211;82;21544;-64
2022/01/14 05:24:53;;;;;;;4.08;1.50;;;;;;;3.65;72.96;99618.52;1696735;82;21081;-63
2022/01/14 05:27:20;;;;;;;4.30;1.40;;;;;;;3.69;72.91;99610.41;1670985;82;21068;-64
2022/01/14 05:29:46;;;;;;;3.58;1.35;;;;;;;3.75;72.74;99610.50;1694303;82;21115;-65
2022/01/14 05:32:14;;;;;;;4.03;1.37;;;;;;;3.76;73.07;99596.53;1696782;83;21224;-65
2022/01/14 05:34:43;;;;;;;6.40;1.50;;;;;;;3.72;73.10;99601.58;1697528;82;21084;-65
2022/01/14 05:37:09;;;;;;;4.50;1.30;;;;;;;3.69;73.08;99589.59;1690003;82;22317;-65
2022/01/14 05:39:36;;;;;;;3.62;1.50;;;;;;;3.66;73.18;99572.05;1667979;82;21094;-65
2022/01/14 05:42:03;;;;;;;3.95;1.40;;;;;;;3.69;73.12;99571.38;1696119;82;21122;-64
2022/01/14 05:44:30;;;;;;;3.87;1.27;;;;;;;3.76;72.89;99557.50;1743878;80;21142;-67
2022/01/14 05:46:57;;;;;;;4.08;1.27;;;;;;;3.81;72.74;99555.91;1745851;79;21126;-64
2022/01/14 05:49:24;;;;;;;3.37;1.50;;;;;;;3.78;72.81;99552.20;1723632;82;21105;-64
2022/01/14 05:51:50;;;;;;;3.22;1.25;;;;;;;3.77;72.99;99547.95;1736081;81;21078;-66
2022/01/14 05:54:18;;;;;;;4.17;1.55;;;;;;;3.74;73.00;99548.97;1742535;80;21039;-63
2022/01/14 05:56:44;;;;;;;4.22;1.30;;;;;;;3.77;72.93;99545.34;1743113;80;21167;-64
2022/01/14 05:59:11;;;;;;;3.92;1.55;;;;;;;3.85;72.63;99554.77;1741989;80;21110;-64
2022/01/14 06:01:38;;;;;;;3.83;1.30;;;;;;;3.87;72.63;99547.23;1721896;80;22438;-64
2022/01/14 06:04:05;;;;;;;5.15;1.80;;;;;;;3.85;72.74;99550.41;1721713;81;21112;-64
2022/01/14 06:06:34;;;;;;;4.00;1.82;;;;;;;3.80;72.79;99547.28;1727318;81;21187;-64
2022/01/14 06:09:02;;;;;;;4.15;1.72;;;;;;;3.75;72.91;99534.18;1702344;82;21122;-64
2022/01/14 06:11:28;;;;;;;4.60;1.87;;;;;;;3.76;73.00;99525.45;1722099;80;21517;-65
2022/01/14 06:13:54;;;;;;;4.67;1.95;;;;;;;3.82;72.83;99519.38;1739779;80;21367;-64
2022/01/14 06:16:21;;;;;;;6.20;2.10;;;;;;;3.85;72.65;99519.19;1723281;82;22008;-65
2022/01/14 06:18:48;;;;;;;6.05;1.80;;;;;;;3.83;72.63;99522.80;1720408;82;21023;-65
2022/01/14 06:21:15;;;;;;;7.28;2.10;;;;;;;3.80;72.66;99506.94;1737626;80;22067;-66
2022/01/14 06:23:41;;;;;;;5.08;2.17;;;;;;;3.78;72.77;99504.06;1738378;80;21109;-65
2022/01/14 06:26:08;;;;;;;6.75;2.22;;;;;;;3.80;72.67;99494.38;1740416;80;21129;-65
2022/01/14 06:28:34;;;;;;;6.15;2.65;;;;;;;3.90;72.36;99500.19;1740656;80;21059;-65
2022/01/14 06:31:01;;;;;;;5.35;1.87;;;;;;;3.90;72.27;99501.49;1734589;80;21034;-65
2022/01/14 06:33:27;;;;;;;5.53;2.45;;;;;;;3.91;72.26;99499.71;1744365;80;21204;-64
2022/01/14 06:35:53;;;;;;;6.58;2.15;;;;;;;3.87;72.22;99506.89;1733217;80;21149;-64
2022/01/14 06:38:20;;;;;;;6.53;2.40;;;;;;;3.82;72.25;99499.86;1671970;83;21054;-65
2022/01/14 06:40:47;;;;;;;11.48;3.50;;;;;;;3.90;72.02;99492.38;1694540;83;21113;-64
2022/01/14 06:43:14;;;;;;;6.80;2.72;;;;;;;3.95;71.80;99467.80;1674980;83;21054;-64
2022/01/14 06:45:42;;;;;;;5.72;2.35;;;;;;;3.98;71.75;99471.03;1694904;82;22425;-65
2022/01/14 06:48:09;;;;;;;10.35;3.10;;;;;;;3.98;71.65;99472.81;1696391;82;21621;-65
2022/01/14 06:50:35;;;;;;;7.08;2.98;;;;;;;3.94;71.59;99469.58;1680469;82;21089;-64
2022/01/14 06:53:03;;;;;;;7.33;3.25;;;;;;;3.95;71.54;99450.44;1691718;82;21040;-64
2022/01/14 06:55:29;;;;;;;11.50;3.70;;;;;;;4.05;71.31;99442.37;1731705;80;21062;-65
2022/01/14 06:57:55;;;;;;;10.68;3.20;;;;;;;4.12;71.00;99426.30;1731728;80;21097;-65
2022/01/14 07:00:22;;;;;;;7.17;3.02;;;;;;;4.10;70.81;99419.90;1733208;82;20960;-64
2022/01/14 07:02:48;;;;;;;8.60;3.05;;;;;;;4.05;70.80;99428.05;1732697;81;20980;-64
2022/01/14 07:05:15;;;;;;;8.55;3.55;;;;;;;4.10;70.75;99412.09;1736112;82;20972;-65
2022/01/14 07:07:41;;;;;;;8.10;2.87;;;;;;;4.17;70.40;99405.98;1695808;82;21109;-64
2022/01/14 07:10:09;;;;;;;7.72;3.33;;;;;;;4.23;70.08;99410.30;1677336;84;21114;-64
2022/01/14 07:12:42;;;;;;;8.15;4.05;;;;;;;4.17;70.07;99406.84;1691075;82;21082;-64
2022/01/14 07:15:11;;;;;;;9.70;4.05;;;;;;;4.13;70.18;99374.13;1698000;84;21540;-64
2022/01/14 07:17:37;;;;;;;7.90;3.20;;;;;;;4.18;70.16;99361.63;1731708;80;21106;-64
2022/01/14 07:20:08;;;;;;;8.20;3.60;;;;;;;4.30;69.72;99365.62;1676163;84;21027;-64
2022/01/14 07:22:35;;;;;;;7.53;3.50;;;;;;;4.37;69.22;99375.95;1729767;81;21107;-66
2022/01/14 07:25:02;;;;;;;8.23;3.45;;;;;;;4.33;69.28;99388.84;1677266;83;21018;-65
2022/01/14 07:27:30;;;;;;;12.63;3.83;;;;;;;4.33;69.15;99403.17;1688159;82;21596;-65
2022/01/14 07:29:57;;;;;;;7.33;3.35;;;;;;;4.27;69.29;99393.55;1687343;82;21014;-65
2022/01/14 07:32:23;;;;;;;8.93;4.60;;;;;;;4.33;69.11;99384.46;1731464;80;21009;-65
2022/01/14 07:34:50;;;;;;;6.85;3.22;;;;;;;4.39;68.74;99381.92;1734012;80;21214;-64
2022/01/14 07:37:17;;;;;;;9.83;3.90;;;;;;;4.39;68.67;99380.13;1733127;80;21099;-65
2022/01/14 07:39:44;;;;;;;7.75;3.33;;;;;;;4.33;68.65;99372.74;1716996;80;21083;-64
2022/01/14 07:42:11;;;;;;;9.70;3.62;;;;;;;4.29;68.66;99362.19;1716768;80;21067;-65
2022/01/14 07:44:38;;;;;;;8.35;3.45;;;;;;;4.32;68.57;99353.31;1693963;82;21113;-65
2022/01/14 07:47:06;;;;;;;8.10;3.10;;;;;;;4.41;68.35;99342.27;1690005;82;21445;-65
2022/01/14 07:49:32;;;;;;;7.00;3.40;;;;;;;4.41;68.10;99328.76;1691709;82;21945;-64
2022/01/14 07:51:59;;;;;;;9.85;3.50;;;;;;;4.42;68.05;99342.16;1692179;82;21164;-65
2022/01/14 07:54:25;;;;;;;9.93;3.67;;;;;;;4.39;68.11;99354.09;1695903;82;21083;-65
2022/01/14 07:56:53;;;;;;;8.80;3.22;;;;;;;4.38;68.17;99354.19;1720304;80;21153;-65
2022/01/14 07:59:22;;;;;;;8.58;3.22;;;;;;;4.40;67.92;99376.57;1731483;80;21108;-64
2022/01/14 08:01:51;;;;;;;9.28;3.85;;;;;;;4.45;67.75;99341.09;1734553;80;21031;-66
2022/01/14 08:04:18;;;;;;;8.23;3.52;;;;;;;4.47;67.71;99348.31;1736918;80;21054;-64
2022/01/14 08:06:49;;;;;;;7.60;3.47;;;;;;;4.42;67.65;99342.16;1735433;80;21552;-64
2022/01/14 08:09:17;;;;;;;7.33;3.30;;;;;;;4.38;67.59;99345.08;1733725;80;21051;-64
2022/01/14 08:11:44;;;;;;;6.17;2.95;;;;;;;4.44;67.52;99348.56;1718712;80;21141;-64
2022/01/14 08:14:12;;;;;;;6.92;3.25;;;;;;;4.52;66.97;99313.64;1732217;80;21094;-64
2022/01/14 08:16:38;;;;;;;9.10;3.37;;;;;;;4.56;66.71;99337.25;1730554;81;21569;-64
2022/01/14 08:19:05;;;;;;;7.62;3.42;;;;;;;4.53;66.65;99294.48;1731842;80;21102;-64
2022/01/14 08:21:31;;;;;;;10.00;2.95;;;;;;;4.54;66.67;99307.87;1678386;82;21015;-64
2022/01/14 08:23:58;;;;;;;8.78;3.00;;;;;;;4.52;66.47;99299.31;1669020;83;23424;-65
2022/01/14 08:26:24;;;;;;;6.80;2.85;;;;;;;4.55;66.33;99296.98;1729927;80;21063;-64
2022/01/14 08:28:51;;;;;;;7.35;2.60;;;;;;;4.59;65.64;99278.41;1717418;80;21492;-64
2022/01/14 08:31:17;;;;;;;6.40;2.52;;;;;;;4.64;65.61;99277.61;1732343;80;21071;-63
2022/01/14 08:33:46;;;;;;;8.03;3.02;;;;;;;4.64;65.69;99255.45;1694704;82;21054;-63
2022/01/14 08:36:13;;;;;;;7.45;2.67;;;;;;;4.62;65.60;99254.75;1694651;82;21103;-64
2022/01/14 08:38:40;;;;;;;7.50;2.45;;;;;;;4.62;65.64;99222.63;1690255;82;20995;-64
2022/01/14 08:41:06;;;;;;;5.00;2.20;;;;;;;4.70;65.53;99242.92;1698945;82;21145;-64
2022/01/14 08:43:33;;;;;;;6.28;2.90;;;;;;;4.72;65.13;99260.56;1677012;82;21173;-66
2022/01/14 08:46:01;;;;;;;6.55;2.55;;;;;;;4.75;65.13;99232.50;1738430;80;21504;-65
2022/01/14 08:48:27;;;;;;;7.67;3.20;;;;;;;4.74;65.11;99227.41;1738911;80;22929;-64
2022/01/14 08:50:54;;;;;;;5.60;2.15;;;;;;;4.76;65.07;99229.45;1724820;81;21169;-63
2022/01/14 08:53:20;;;;;;;6.92;2.27;;;;;;;4.74;65.02;99230.86;1737258;80;22593;-65
2022/01/14 08:55:48;;;;;;;5.92;2.40;;;;;;;4.75;65.05;99221.26;1738019;80;21059;-65
2022/01/14 08:58:14;;;;;;;6.78;2.00;;;;;;;4.81;64.79;99229.93;1701112;82;21239;-64
2022/01/14 09:00:41;;;;;;;6.08;2.17;;;;;;;4.88;64.46;99206.36;1724279;80;21173;-63
2022/01/14 09:03:08;;;;;;;4.55;1.98;;;;;;;4.93;64.39;99192.51;1700819;82;21049;-64
2022/01/14 09:05:34;;;;;;;4.60;1.72;;;;;;;4.93;64.20;99195.12;1697959;82;21571;-65
2022/01/14 09:08:01;;;;;;;7.60;2.50;;;;;;;4.93;64.12;99189.08;1698547;82;21050;-64
2022/01/14 09:10:27;;;;;;;5.37;2.37;;;;;;;4.90;64.23;99195.34;1696971;82;21011;-63
2022/01/14 09:12:54;;;;;;;5.42;2.05;;;;;;;4.86;64.31;99190.02;1675502;82;21910;-63
2022/01/14 09:15:20;;;;;;;5.80;2.12;;;;;;;4.84;64.40;99185.37;1744595;80;21597;-63
2022/01/14 09:17:47;;;;;;;7.50;2.65;;;;;;;4.91;64.31;99168.34;1702268;82;21137;-64
2022/01/14 09:20:13;;;;;;;5.10;2.30;;;;;;;4.91;64.30;99161.83;1721855;80;21095;-64
2022/01/14 09:22:47;;;;;;;9.45;2.47;;;;;;;4.87;64.47;99150.44;1699585;82;21065;-64
2022/01/14 09:25:10;;;;;;;5.60;2.45;;;;;;;4.82;64.59;99173.78;1703226;82;21158;-64
2022/01/14 09:27:36;;;;;;;6.70;2.25;;;;;;;4.80;64.68;99183.95;1738922;80;21102;-65
2022/01/14 09:30:04;;;;;;;5.05;2.10;;;;;;;4.86;64.74;99145.70;1720061;80;21627;-65
2022/01/14 09:32:31;;;;;;;4.58;1.77;;;;;;;4.96;64.52;99158.84;1743037;80;21003;-65
2022/01/14 09:34:57;;;;;;;7.35;2.60;;;;;;;5.01;64.39;99148.44;1742363;80;21571;-64
2022/01/14 09:37:24;;;;;;;6.65;2.40;;;;;;;4.96;64.36;99188.83;1738799;80;21217;-64
2022/01/14 09:39:50;;;;;;;6.17;2.20;;;;;;;4.93;64.48;99148.67;1723927;80;21035;-64
2022/01/14 09:42:16;;;;;;;7.87;2.83;;;;;;;4.89;64.61;99185.03;1701471;82;21078;-64
2022/01/14 09:44:43;;;;;;;10.28;2.70;;;;;;;4.88;64.74;99140.37;1674936;83;21063;-64
2022/01/14 09:47:12;;;;;;;6.70;2.45;;;;;;;4.89;64.80;99138.11;1703874;83;21034;-64
2022/01/14 09:49:38;;;;;;;5.37;2.10;;;;;;;4.98;64.53;99097.84;1703059;82;21146;-63
2022/01/14 09:52:06;;;;;;;5.75;2.80;;;;;;;5.01;64.46;99108.03;1699326;82;21054;-63
2022/01/14 09:54:33;;;;;;;10.78;2.65;;;;;;;4.98;64.47;99125.20;1702856;82;21074;-64
2022/01/14 09:56:59;;;;;;;6.45;2.87;;;;;;;4.93;64.67;99122.61;1722783;80;21046;-64
2022/01/14 09:59:25;;;;;;;5.62;2.42;;;;;;;4.92;64.78;99096.99;1743170;80;21368;-64
2022/01/14 10:01:52;;;;;;;6.62;2.60;;;;;;;4.90;64.81;99085.86;1742832;80;21137;-64
2022/01/14 10:04:20;;;;;;;6.87;2.55;;;;;;;5.00;64.64;99092.02;1739812;80;21137;-64
2022/01/14 10:06:55;;;;;;;6.40;2.70;;;;;;;5.01;64.44;99102.81;1742731;80;21019;-65
2022/01/14 10:09:35;;;;;;;5.65;2.40;;;;;;;5.02;64.56;99092.72;1744127;80;21098;-64
2022/01/14 10:12:14;;;;;;;8.60;2.33;;;;;;;5.00;64.58;99083.38;1741151;80;21726;-64
2022/01/14 10:14:54;;;;;;;6.10;1.90;;;;;;;4.99;64.61;99079.10;1674714;82;21856;-63
2022/01/14 10:17:21;;;;;;;5.90;2.47;;;;;;;4.95;64.75;99076.39;1720873;80;21555;-65
2022/01/14 10:19:48;;;;;;;8.58;2.22;;;;;;;5.00;64.76;99059.44;1744099;80;21141;-65
2022/01/14 10:22:30;;;;;;;5.80;2.27;;;;;;;5.10;64.50;99050.91;1699642;82;21069;-65
2022/01/14 10:25:05;;;;;;;6.15;2.40;;;;;;;5.12;64.41;99046.39;1699685;82;20999;-64
2022/01/14 10:27:36;;;;;;;5.78;2.52;;;;;;;5.11;64.40;99033.84;1675314;82;21996;-63
2022/01/14 10:30:13;;;;;;;6.92;2.20;;;;;;;5.06;64.37;99037.73;1702094;82;21018;-65
2022/01/14 10:32:41;;;;;;;6.10;2.40;;;;;;;5.07;64.44;99028.98;1705041;82;21708;-65
2022/01/14 10:35:12;;;;;;;5.60;2.00;;;;;;;5.09;64.43;99035.72;1688901;82;21054;-63
2022/01/14 10:37:38;;;;;;;4.87;1.80;;;;;;;5.18;64.38;99009.41;1723956;81;21058;-64
2022/01/14 10:40:08;;;;;;;4.33;1.80;;;;;;;5.27;64.05;99008.66;1704856;82;21110;-64
2022/01/14 10:42:35;;;;;;;5.87;2.33;;;;;;;5.30;63.88;98989.34;1731974;80;21094;-63
2022/01/14 10:45:22;;;;;;;4.60;1.70;;;;;;;5.31;63.74;98972.27;1731527;80;21066;-63
2022/01/14 10:48:05;;;;;;;6.45;2.08;;;;;;;5.29;63.75;98987.19;1736260;80;21365;-65
2022/01/14 10:50:38;;;;;;;8.18;1.85;;;;;;;5.31;63.87;98969.66;1730289;80;21121;-65
2022/01/14 10:55:37;;;;;;;5.80;2.15;;;;;;;5.43;63.72;98947.42;1779438;78;22584;-53
2022/01/14 10:58:07;;;;;;;6.60;1.90;;;;;;;5.48;63.58;98944.81;1738039;80;21557;-62
2022/01/14 11:00:41;;;;;;;4.28;1.80;;;;;;;5.52;63.28;98941.47;1706069;81;21440;-59
2022/01/14 11:03:08;;;;;;;4.40;1.42;;;;;;;5.52;63.29;98924.51;1681759;81;21141;-65
2022/01/14 11:05:35;;;;;;;5.08;2.12;;;;;;;5.47;63.52;98917.05;1705128;81;21691;-63
2022/01/14 11:08:02;;;;;;;5.33;1.40;;;;;;;5.45;63.76;98921.58;1707039;81;21070;-61
2022/01/14 11:10:33;;;;;;;4.60;1.62;;;;;;;5.40;63.83;98896.34;1695279;83;21078;-55
2022/01/14 11:13:06;;;;;;;4.92;1.75;;;;;;;5.31;64.22;98887.95;1693735;82;22585;-60
2022/01/14 11:15:33;;;;;;;4.67;1.42;;;;;;;5.36;64.25;98854.50;1695736;82;21558;-61
2022/01/14 11:18:05;;;;;;;11.10;2.30;;;;;;;5.45;64.05;98843.80;1692708;82;21063;-55
2022/01/14 11:20:33;;;;;;;5.05;1.75;;;;;;;5.42;64.05;98874.05;1690875;82;21114;-58
2022/01/14 11:23:15;;;;;;;5.37;2.00;;;;;;;5.39;64.22;98855.06;1668835;83;21113;-58
2022/01/14 11:25:51;;;;;;;5.20;2.10;;;;;;;5.37;64.46;98848.34;1705513;81;21176;-61
2022/01/14 11:28:36;;;;;;;5.60;2.25;;;;;;;5.34;64.55;98842.89;1679092;83;21081;-59
2022/01/14 11:31:32;;;;;;;5.90;2.00;;;;;;;5.28;64.78;98839.50;1702418;81;21070;-59
2022/01/14 11:34:00;;;;;;;6.43;2.87;;;;;;;5.28;65.04;98832.13;1678832;81;21117;-59
2022/01/14 11:36:53;;;;;;;7.53;2.30;;;;;;;5.30;65.12;98839.38;1712164;81;21426;-60
2022/01/14 11:39:21;;;;;;;4.75;2.08;;;;;;;5.21;65.40;98834.42;1706966;81;21207;-56
2022/01/14 11:41:58;;;;;;;4.62;1.85;;;;;;;5.10;65.76;98802.73;1709782;81;21108;-60
2022/01/14 11:44:52;;;;;;;5.05;2.05;;;;;;;5.06;65.98;98810.92;1677830;81;21068;-60
2022/01/14 11:47:40;;;;;;;6.08;1.95;;;;;;;5.02;66.00;98808.56;1704191;81;21131;-60
2022/01/14 11:50:22;;;;;;;4.87;1.90;;;;;;;5.03;66.11;98778.94;1702509;81;20991;-58
2022/01/14 11:53:02;;;;;;;4.90;1.77;;;;;;;5.12;65.93;98792.98;1687394;81;22436;-60
2022/01/14 11:55:34;;;;;;;6.28;1.87;;;;;;;5.12;65.99;98801.30;1691514;81;21078;-60
2022/01/14 11:58:06;;;;;;;5.35;1.75;;;;;;;5.11;65.92;98765.73;1727412;80;21592;-61
2022/01/14 12:00:39;;;;;;;5.60;1.60;;;;;;;5.02;66.15;98769.45;1690865;82;21122;-61
2022/01/14 12:03:29;;;;;;;4.25;1.95;;;;;;;5.02;66.16;98755.12;1720613;80;21083;-60
2022/01/14 12:06:05;;;;;;;3.47;1.37;;;;;;;5.06;66.20;98763.99;1725216;80;22624;-61
2022/01/14 12:08:33;;;;;;;4.20;1.70;;;;;;;5.13;65.98;98751.63;1720925;80;21099;-60
2022/01/14 12:11:12;;;;;;;3.85;1.45;;;;;;;5.14;65.94;98738.11;1691149;82;21136;-59